sensor_id;sensor_type;location;lat;lon;timestamp;P1;durP1;ratioP1;P2;durP2;ratioP2
16436;SDS011;8328;52.206;21.006;2023-09-07T00:02:23;15.97;;;8.10;;
16436;SDS011;8328;52.206;21.006;2023-09-07T00:04:49;16.13;;;8.50;;
16436;SDS011;8328;52.206;21.006;2023-09-07T00:07:15;13.30;;;8.20;;
16436;SDS011;8328;52.206;21.006;2023-09-07T00:09:41;17.10;;;9.03;;
16436;SDS011;8328;52.206;21.006;2023-09-07T00:12:07;17.93;;;8.73;;
16436;SDS011;8328;52.206;21.006;2023-09-07T00:14:33;15.30;;;8.67;;
16436;SDS011;8328;52.206;21.006;2023-09-07T00:16:59;15.30;;;8.00;;
16436;SDS011;8328;52.206;21.006;2023-09-07T00:19:25;18.13;;;8.47;;
16436;SDS011;8328;52.206;21.006;2023-09-07T00:21:52;15.50;;;8.27;;
16436;SDS011;8328;52.206;21.006;2023-09-07T00:24:18;21.17;;;8.80;;
16436;SDS011;8328;52.206;21.006;2023-09-07T00:26:45;17.17;;;8.47;;
16436;SDS011;8328;52.206;21.006;2023-09-07T00:29:11;15.90;;;8.40;;
16436;SDS011;8328;52.206;21.006;2023-09-07T00:31:37;14.03;;;8.67;;
16436;SDS011;8328;52.206;21.006;2023-09-07T00:34:03;12.37;;;7.77;;
16436;SDS011;8328;52.206;21.006;2023-09-07T00:36:29;14.13;;;7.90;;
16436;SDS011;8328;52.206;21.006;2023-09-07T00:38:55;15.33;;;8.00;;
16436;SDS011;8328;52.206;21.006;2023-09-07T00:41:21;16.73;;;8.67;;
16436;SDS011;8328;52.206;21.006;2023-09-07T00:43:47;13.93;;;8.33;;
16436;SDS011;8328;52.206;21.006;2023-09-07T00:46:14;15.77;;;7.90;;
16436;SDS011;8328;52.206;21.006;2023-09-07T00:48:40;14.17;;;8.13;;
16436;SDS011;8328;52.206;21.006;2023-09-07T00:51:06;14.07;;;8.30;;
16436;SDS011;8328;52.206;21.006;2023-09-07T00:53:32;14.27;;;8.10;;
16436;SDS011;8328;52.206;21.006;2023-09-07T00:55:59;13.93;;;8.40;;
16436;SDS011;8328;52.206;21.006;2023-09-07T00:58:25;12.83;;;8.10;;
16436;SDS011;8328;52.206;21.006;2023-09-07T01:00:51;14.00;;;8.33;;
16436;SDS011;8328;52.206;21.006;2023-09-07T01:03:17;14.43;;;8.10;;
16436;SDS011;8328;52.206;21.006;2023-09-07T01:05:51;13.77;;;8.47;;
16436;SDS011;8328;52.206;21.006;2023-09-07T01:08:23;14.23;;;8.87;;
16436;SDS011;8328;52.206;21.006;2023-09-07T01:10:50;17.63;;;8.30;;
16436;SDS011;8328;52.206;21.006;2023-09-07T01:13:16;17.03;;;8.93;;
16436;SDS011;8328;52.206;21.006;2023-09-07T01:15:42;14.33;;;8.83;;
16436;SDS011;8328;52.206;21.006;2023-09-07T01:18:08;18.07;;;8.80;;
16436;SDS011;8328;52.206;21.006;2023-09-07T01:20:35;14.93;;;8.90;;
16436;SDS011;8328;52.206;21.006;2023-09-07T01:23:04;15.77;;;7.97;;
16436;SDS011;8328;52.206;21.006;2023-09-07T01:25:30;15.37;;;9.07;;
16436;SDS011;8328;52.206;21.006;2023-09-07T01:27:57;17.43;;;9.10;;
16436;SDS011;8328;52.206;21.006;2023-09-07T01:30:26;19.37;;;8.60;;
16436;SDS011;8328;52.206;21.006;2023-09-07T01:32:52;17.10;;;9.03;;
16436;SDS011;8328;52.206;21.006;2023-09-07T01:35:18;15.37;;;9.00;;
16436;SDS011;8328;52.206;21.006;2023-09-07T01:37:47;14.43;;;8.97;;
16436;SDS011;8328;52.206;21.006;2023-09-07T01:40:13;15.20;;;8.80;;
16436;SDS011;8328;52.206;21.006;2023-09-07T01:42:39;17.27;;;8.57;;
16436;SDS011;8328;52.206;21.006;2023-09-07T01:45:05;15.67;;;9.20;;
16436;SDS011;8328;52.206;21.006;2023-09-07T01:47:31;16.70;;;9.40;;
16436;SDS011;8328;52.206;21.006;2023-09-07T01:49:57;16.20;;;9.17;;
16436;SDS011;8328;52.206;21.006;2023-09-07T01:52:23;15.83;;;8.40;;
16436;SDS011;8328;52.206;21.006;2023-09-07T01:54:50;18.23;;;9.30;;
16436;SDS011;8328;52.206;21.006;2023-09-07T01:57:16;15.53;;;9.40;;
16436;SDS011;8328;52.206;21.006;2023-09-07T01:59:42;15.13;;;9.10;;
16436;SDS011;8328;52.206;21.006;2023-09-07T02:02:08;16.27;;;9.10;;
16436;SDS011;8328;52.206;21.006;2023-09-07T02:04:34;19.43;;;9.60;;
16436;SDS011;8328;52.206;21.006;2023-09-07T02:07:00;15.63;;;8.90;;
16436;SDS011;8328;52.206;21.006;2023-09-07T02:09:26;15.73;;;8.60;;
16436;SDS011;8328;52.206;21.006;2023-09-07T02:11:52;19.40;;;9.70;;
16436;SDS011;8328;52.206;21.006;2023-09-07T02:14:18;19.37;;;9.40;;
16436;SDS011;8328;52.206;21.006;2023-09-07T02:16:44;16.60;;;9.30;;
16436;SDS011;8328;52.206;21.006;2023-09-07T02:19:10;18.20;;;9.77;;
16436;SDS011;8328;52.206;21.006;2023-09-07T02:21:36;21.03;;;10.00;;
16436;SDS011;8328;52.206;21.006;2023-09-07T02:24:02;17.77;;;10.10;;
16436;SDS011;8328;52.206;21.006;2023-09-07T02:26:28;18.40;;;9.33;;
16436;SDS011;8328;52.206;21.006;2023-09-07T02:28:54;17.47;;;9.33;;
16436;SDS011;8328;52.206;21.006;2023-09-07T02:31:20;17.20;;;9.83;;
16436;SDS011;8328;52.206;21.006;2023-09-07T02:33:46;15.83;;;8.60;;
16436;SDS011;8328;52.206;21.006;2023-09-07T02:36:13;19.43;;;9.90;;
16436;SDS011;8328;52.206;21.006;2023-09-07T02:38:39;16.03;;;9.30;;
16436;SDS011;8328;52.206;21.006;2023-09-07T02:41:05;19.77;;;11.00;;
16436;SDS011;8328;52.206;21.006;2023-09-07T02:43:31;22.07;;;12.13;;
16436;SDS011;8328;52.206;21.006;2023-09-07T02:45:57;17.77;;;11.63;;
16436;SDS011;8328;52.206;21.006;2023-09-07T02:48:23;20.47;;;9.93;;
16436;SDS011;8328;52.206;21.006;2023-09-07T02:50:50;15.63;;;9.27;;
16436;SDS011;8328;52.206;21.006;2023-09-07T02:53:16;15.37;;;8.83;;
16436;SDS011;8328;52.206;21.006;2023-09-07T02:55:42;15.93;;;10.30;;
16436;SDS011;8328;52.206;21.006;2023-09-07T02:58:08;20.77;;;10.23;;
16436;SDS011;8328;52.206;21.006;2023-09-07T03:00:34;23.40;;;11.10;;
16436;SDS011;8328;52.206;21.006;2023-09-07T03:03:01;15.03;;;9.10;;
16436;SDS011;8328;52.206;21.006;2023-09-07T03:05:28;19.03;;;10.13;;
16436;SDS011;8328;52.206;21.006;2023-09-07T03:07:54;21.47;;;11.27;;
16436;SDS011;8328;52.206;21.006;2023-09-07T03:10:20;29.90;;;15.37;;
16436;SDS011;8328;52.206;21.006;2023-09-07T03:12:46;23.77;;;14.10;;
16436;SDS011;8328;52.206;21.006;2023-09-07T03:15:12;21.33;;;14.57;;
16436;SDS011;8328;52.206;21.006;2023-09-07T03:17:38;22.20;;;12.17;;
16436;SDS011;8328;52.206;21.006;2023-09-07T03:20:05;16.50;;;10.40;;
16436;SDS011;8328;52.206;21.006;2023-09-07T03:22:44;15.63;;;10.30;;
16436;SDS011;8328;52.206;21.006;2023-09-07T03:25:10;18.23;;;10.50;;
16436;SDS011;8328;52.206;21.006;2023-09-07T03:27:37;21.57;;;10.13;;
16436;SDS011;8328;52.206;21.006;2023-09-07T03:30:03;21.27;;;10.03;;
16436;SDS011;8328;52.206;21.006;2023-09-07T03:32:31;17.53;;;9.63;;
16436;SDS011;8328;52.206;21.006;2023-09-07T03:35:02;16.03;;;9.33;;
16436;SDS011;8328;52.206;21.006;2023-09-07T03:37:30;22.47;;;10.20;;
16436;SDS011;8328;52.206;21.006;2023-09-07T03:39:56;18.97;;;9.93;;
16436;SDS011;8328;52.206;21.006;2023-09-07T03:42:22;19.47;;;9.87;;
16436;SDS011;8328;52.206;21.006;2023-09-07T03:44:48;20.60;;;9.40;;
16436;SDS011;8328;52.206;21.006;2023-09-07T03:47:14;15.53;;;9.43;;
16436;SDS011;8328;52.206;21.006;2023-09-07T03:49:41;17.70;;;9.70;;
16436;SDS011;8328;52.206;21.006;2023-09-07T03:52:07;19.43;;;9.87;;
16436;SDS011;8328;52.206;21.006;2023-09-07T03:54:33;19.97;;;10.20;;
16436;SDS011;8328;52.206;21.006;2023-09-07T03:56:59;18.13;;;9.43;;
16436;SDS011;8328;52.206;21.006;2023-09-07T03:59:27;15.27;;;9.43;;
16436;SDS011;8328;52.206;21.006;2023-09-07T04:01:53;17.83;;;9.20;;
16436;SDS011;8328;52.206;21.006;2023-09-07T04:04:19;21.83;;;9.77;;
16436;SDS011;8328;52.206;21.006;2023-09-07T04:06:46;19.10;;;9.90;;
16436;SDS011;8328;52.206;21.006;2023-09-07T04:09:15;17.17;;;9.83;;
16436;SDS011;8328;52.206;21.006;2023-09-07T04:11:41;20.17;;;10.63;;
16436;SDS011;8328;52.206;21.006;2023-09-07T04:14:08;18.63;;;11.27;;
16436;SDS011;8328;52.206;21.006;2023-09-07T04:16:34;20.13;;;10.37;;
16436;SDS011;8328;52.206;21.006;2023-09-07T04:19:00;21.17;;;11.33;;
16436;SDS011;8328;52.206;21.006;2023-09-07T04:21:26;24.40;;;10.57;;
16436;SDS011;8328;52.206;21.006;2023-09-07T04:23:52;21.20;;;11.10;;
16436;SDS011;8328;52.206;21.006;2023-09-07T04:26:18;18.10;;;11.17;;
16436;SDS011;8328;52.206;21.006;2023-09-07T04:28:44;20.83;;;9.97;;
16436;SDS011;8328;52.206;21.006;2023-09-07T04:31:10;16.63;;;9.77;;
16436;SDS011;8328;52.206;21.006;2023-09-07T04:33:36;18.83;;;10.10;;
16436;SDS011;8328;52.206;21.006;2023-09-07T04:36:13;19.47;;;10.33;;
16436;SDS011;8328;52.206;21.006;2023-09-07T04:38:39;17.83;;;9.93;;
16436;SDS011;8328;52.206;21.006;2023-09-07T04:41:09;15.23;;;8.73;;
16436;SDS011;8328;52.206;21.006;2023-09-07T04:43:36;13.60;;;9.33;;
16436;SDS011;8328;52.206;21.006;2023-09-07T04:46:02;14.33;;;9.37;;
16436;SDS011;8328;52.206;21.006;2023-09-07T04:48:28;14.93;;;9.50;;
16436;SDS011;8328;52.206;21.006;2023-09-07T04:51:12;16.83;;;10.00;;
16436;SDS011;8328;52.206;21.006;2023-09-07T04:53:38;20.20;;;9.93;;
16436;SDS011;8328;52.206;21.006;2023-09-07T04:56:05;19.87;;;10.80;;
16436;SDS011;8328;52.206;21.006;2023-09-07T04:58:32;19.03;;;10.47;;
16436;SDS011;8328;52.206;21.006;2023-09-07T05:01:02;17.33;;;10.17;;
16436;SDS011;8328;52.206;21.006;2023-09-07T05:03:28;15.90;;;10.70;;
16436;SDS011;8328;52.206;21.006;2023-09-07T05:05:54;18.60;;;10.13;;
16436;SDS011;8328;52.206;21.006;2023-09-07T05:08:21;17.30;;;10.37;;
16436;SDS011;8328;52.206;21.006;2023-09-07T05:10:48;16.63;;;10.43;;
16436;SDS011;8328;52.206;21.006;2023-09-07T05:13:14;17.40;;;10.30;;
16436;SDS011;8328;52.206;21.006;2023-09-07T05:15:47;19.27;;;10.80;;
16436;SDS011;8328;52.206;21.006;2023-09-07T05:18:14;18.70;;;11.03;;
16436;SDS011;8328;52.206;21.006;2023-09-07T05:20:40;20.27;;;10.97;;
16436;SDS011;8328;52.206;21.006;2023-09-07T05:23:06;19.07;;;10.73;;
16436;SDS011;8328;52.206;21.006;2023-09-07T05:25:32;17.57;;;10.93;;
16436;SDS011;8328;52.206;21.006;2023-09-07T05:27:58;21.90;;;11.10;;
16436;SDS011;8328;52.206;21.006;2023-09-07T05:30:24;20.07;;;12.33;;
16436;SDS011;8328;52.206;21.006;2023-09-07T05:32:50;21.30;;;13.87;;
16436;SDS011;8328;52.206;21.006;2023-09-07T05:35:16;22.27;;;13.27;;
16436;SDS011;8328;52.206;21.006;2023-09-07T05:37:43;19.53;;;13.03;;
16436;SDS011;8328;52.206;21.006;2023-09-07T05:40:09;27.97;;;15.93;;
16436;SDS011;8328;52.206;21.006;2023-09-07T05:42:35;23.17;;;15.37;;
16436;SDS011;8328;52.206;21.006;2023-09-07T05:45:01;21.03;;;13.13;;
16436;SDS011;8328;52.206;21.006;2023-09-07T05:47:29;18.57;;;15.10;;
16436;SDS011;8328;52.206;21.006;2023-09-07T05:49:55;27.43;;;17.07;;
16436;SDS011;8328;52.206;21.006;2023-09-07T05:52:21;26.93;;;16.73;;
16436;SDS011;8328;52.206;21.006;2023-09-07T05:54:48;26.00;;;16.23;;
16436;SDS011;8328;52.206;21.006;2023-09-07T05:57:14;24.93;;;16.63;;
16436;SDS011;8328;52.206;21.006;2023-09-07T05:59:40;20.97;;;15.40;;
16436;SDS011;8328;52.206;21.006;2023-09-07T06:02:06;25.50;;;15.93;;
16436;SDS011;8328;52.206;21.006;2023-09-07T06:04:32;23.60;;;16.03;;
16436;SDS011;8328;52.206;21.006;2023-09-07T06:07:00;21.17;;;15.90;;
16436;SDS011;8328;52.206;21.006;2023-09-07T06:09:26;20.00;;;13.73;;
16436;SDS011;8328;52.206;21.006;2023-09-07T06:11:53;23.43;;;14.77;;
16436;SDS011;8328;52.206;21.006;2023-09-07T06:14:20;20.07;;;14.13;;
16436;SDS011;8328;52.206;21.006;2023-09-07T06:16:46;22.63;;;15.20;;
16436;SDS011;8328;52.206;21.006;2023-09-07T06:19:12;25.87;;;16.97;;
16436;SDS011;8328;52.206;21.006;2023-09-07T06:21:38;22.03;;;15.17;;
16436;SDS011;8328;52.206;21.006;2023-09-07T06:24:04;22.43;;;14.10;;
16436;SDS011;8328;52.206;21.006;2023-09-07T06:26:31;22.80;;;14.73;;
16436;SDS011;8328;52.206;21.006;2023-09-07T06:28:58;21.83;;;15.63;;
16436;SDS011;8328;52.206;21.006;2023-09-07T06:31:24;20.20;;;14.20;;
16436;SDS011;8328;52.206;21.006;2023-09-07T06:33:50;18.63;;;15.03;;
16436;SDS011;8328;52.206;21.006;2023-09-07T06:36:16;21.80;;;15.53;;
16436;SDS011;8328;52.206;21.006;2023-09-07T06:38:42;23.27;;;14.27;;
16436;SDS011;8328;52.206;21.006;2023-09-07T06:41:08;19.07;;;14.33;;
16436;SDS011;8328;52.206;21.006;2023-09-07T06:43:34;22.10;;;15.37;;
16436;SDS011;8328;52.206;21.006;2023-09-07T06:46:07;27.60;;;15.27;;
16436;SDS011;8328;52.206;21.006;2023-09-07T06:48:34;24.57;;;14.63;;
16436;SDS011;8328;52.206;21.006;2023-09-07T06:51:03;20.53;;;13.87;;
16436;SDS011;8328;52.206;21.006;2023-09-07T06:53:30;21.13;;;14.17;;
16436;SDS011;8328;52.206;21.006;2023-09-07T06:55:57;18.87;;;13.70;;
16436;SDS011;8328;52.206;21.006;2023-09-07T06:58:23;18.37;;;12.93;;
16436;SDS011;8328;52.206;21.006;2023-09-07T07:00:49;20.20;;;13.90;;
16436;SDS011;8328;52.206;21.006;2023-09-07T07:03:15;20.87;;;13.30;;
16436;SDS011;8328;52.206;21.006;2023-09-07T07:05:41;22.07;;;15.60;;
16436;SDS011;8328;52.206;21.006;2023-09-07T07:08:09;17.60;;;12.93;;
16436;SDS011;8328;52.206;21.006;2023-09-07T07:10:35;21.03;;;12.27;;
16436;SDS011;8328;52.206;21.006;2023-09-07T07:13:01;18.40;;;12.37;;
16436;SDS011;8328;52.206;21.006;2023-09-07T07:15:28;20.23;;;13.27;;
16436;SDS011;8328;52.206;21.006;2023-09-07T07:17:54;15.90;;;12.63;;
16436;SDS011;8328;52.206;21.006;2023-09-07T07:20:20;18.23;;;12.23;;
16436;SDS011;8328;52.206;21.006;2023-09-07T07:22:46;19.43;;;13.07;;
16436;SDS011;8328;52.206;21.006;2023-09-07T07:25:12;20.47;;;11.80;;
16436;SDS011;8328;52.206;21.006;2023-09-07T07:27:38;20.87;;;12.53;;
16436;SDS011;8328;52.206;21.006;2023-09-07T07:30:04;18.87;;;12.07;;
16436;SDS011;8328;52.206;21.006;2023-09-07T07:32:30;20.60;;;12.90;;
16436;SDS011;8328;52.206;21.006;2023-09-07T07:34:57;17.80;;;11.97;;
16436;SDS011;8328;52.206;21.006;2023-09-07T07:37:23;20.53;;;12.77;;
16436;SDS011;8328;52.206;21.006;2023-09-07T07:39:49;22.13;;;11.63;;
16436;SDS011;8328;52.206;21.006;2023-09-07T07:42:15;18.17;;;11.37;;
16436;SDS011;8328;52.206;21.006;2023-09-07T07:44:43;20.63;;;12.67;;
16436;SDS011;8328;52.206;21.006;2023-09-07T07:47:10;18.27;;;12.53;;
16436;SDS011;8328;52.206;21.006;2023-09-07T07:49:36;23.93;;;12.33;;
16436;SDS011;8328;52.206;21.006;2023-09-07T07:52:03;20.93;;;11.50;;
16436;SDS011;8328;52.206;21.006;2023-09-07T07:54:29;23.33;;;11.00;;
16436;SDS011;8328;52.206;21.006;2023-09-07T07:56:55;27.17;;;12.37;;
16436;SDS011;8328;52.206;21.006;2023-09-07T07:59:21;18.87;;;11.17;;
16436;SDS011;8328;52.206;21.006;2023-09-07T08:01:47;19.13;;;11.50;;
16436;SDS011;8328;52.206;21.006;2023-09-07T08:04:13;17.43;;;11.17;;
16436;SDS011;8328;52.206;21.006;2023-09-07T08:06:39;14.40;;;10.90;;
16436;SDS011;8328;52.206;21.006;2023-09-07T08:09:05;19.07;;;11.47;;
16436;SDS011;8328;52.206;21.006;2023-09-07T08:11:33;17.57;;;11.00;;
16436;SDS011;8328;52.206;21.006;2023-09-07T08:13:59;19.80;;;12.00;;
16436;SDS011;8328;52.206;21.006;2023-09-07T08:16:26;20.10;;;12.83;;
16436;SDS011;8328;52.206;21.006;2023-09-07T08:18:54;23.13;;;13.13;;
16436;SDS011;8328;52.206;21.006;2023-09-07T08:21:20;15.40;;;11.77;;
16436;SDS011;8328;52.206;21.006;2023-09-07T08:23:46;19.70;;;11.77;;
16436;SDS011;8328;52.206;21.006;2023-09-07T08:26:12;20.87;;;12.40;;
16436;SDS011;8328;52.206;21.006;2023-09-07T08:28:40;18.43;;;12.03;;
16436;SDS011;8328;52.206;21.006;2023-09-07T08:31:06;21.53;;;12.10;;
16436;SDS011;8328;52.206;21.006;2023-09-07T08:33:32;21.57;;;12.00;;
16436;SDS011;8328;52.206;21.006;2023-09-07T08:36:05;17.07;;;11.77;;
16436;SDS011;8328;52.206;21.006;2023-09-07T08:38:31;21.27;;;11.67;;
16436;SDS011;8328;52.206;21.006;2023-09-07T08:41:00;21.87;;;12.07;;
16436;SDS011;8328;52.206;21.006;2023-09-07T08:43:27;22.97;;;11.70;;
16436;SDS011;8328;52.206;21.006;2023-09-07T08:46:00;20.40;;;11.17;;
16436;SDS011;8328;52.206;21.006;2023-09-07T08:48:28;17.03;;;10.90;;
16436;SDS011;8328;52.206;21.006;2023-09-07T08:50:55;14.83;;;9.90;;
16436;SDS011;8328;52.206;21.006;2023-09-07T08:53:22;16.83;;;9.77;;
16436;SDS011;8328;52.206;21.006;2023-09-07T08:55:48;16.00;;;9.67;;
16436;SDS011;8328;52.206;21.006;2023-09-07T08:58:14;19.30;;;10.60;;
16436;SDS011;8328;52.206;21.006;2023-09-07T09:00:41;17.27;;;10.23;;
16436;SDS011;8328;52.206;21.006;2023-09-07T09:03:08;15.83;;;9.40;;
16436;SDS011;8328;52.206;21.006;2023-09-07T09:05:35;16.53;;;11.53;;
16436;SDS011;8328;52.206;21.006;2023-09-07T09:08:04;15.90;;;10.17;;
16436;SDS011;8328;52.206;21.006;2023-09-07T09:10:31;14.87;;;9.27;;
16436;SDS011;8328;52.206;21.006;2023-09-07T09:12:57;16.50;;;9.23;;
16436;SDS011;8328;52.206;21.006;2023-09-07T09:15:25;14.53;;;8.70;;
16436;SDS011;8328;52.206;21.006;2023-09-07T09:17:52;12.33;;;8.87;;
16436;SDS011;8328;52.206;21.006;2023-09-07T09:20:25;12.93;;;8.40;;
16436;SDS011;8328;52.206;21.006;2023-09-07T09:22:54;13.07;;;8.53;;
16436;SDS011;8328;52.206;21.006;2023-09-07T09:25:21;11.57;;;7.23;;
16436;SDS011;8328;52.206;21.006;2023-09-07T09:27:48;11.97;;;7.17;;
16436;SDS011;8328;52.206;21.006;2023-09-07T09:30:14;12.00;;;7.43;;
16436;SDS011;8328;52.206;21.006;2023-09-07T09:32:41;16.30;;;8.13;;
16436;SDS011;8328;52.206;21.006;2023-09-07T09:35:08;16.83;;;7.57;;
16436;SDS011;8328;52.206;21.006;2023-09-07T09:37:42;11.67;;;6.30;;
16436;SDS011;8328;52.206;21.006;2023-09-07T09:40:09;11.10;;;5.80;;
16436;SDS011;8328;52.206;21.006;2023-09-07T09:42:36;13.30;;;6.50;;
16436;SDS011;8328;52.206;21.006;2023-09-07T09:45:03;8.17;;;5.90;;
16436;SDS011;8328;52.206;21.006;2023-09-07T09:47:31;10.70;;;6.33;;
16436;SDS011;8328;52.206;21.006;2023-09-07T09:49:59;8.43;;;5.83;;
16436;SDS011;8328;52.206;21.006;2023-09-07T09:52:31;9.43;;;5.80;;
16436;SDS011;8328;52.206;21.006;2023-09-07T09:54:58;10.93;;;7.10;;
16436;SDS011;8328;52.206;21.006;2023-09-07T09:57:26;9.50;;;5.30;;
16436;SDS011;8328;52.206;21.006;2023-09-07T09:59:54;10.47;;;5.87;;
16436;SDS011;8328;52.206;21.006;2023-09-07T10:02:21;9.40;;;5.40;;
16436;SDS011;8328;52.206;21.006;2023-09-07T10:04:47;10.73;;;5.53;;
16436;SDS011;8328;52.206;21.006;2023-09-07T10:07:13;10.97;;;5.87;;
16436;SDS011;8328;52.206;21.006;2023-09-07T10:09:39;7.00;;;5.47;;
16436;SDS011;8328;52.206;21.006;2023-09-07T10:12:10;6.73;;;4.90;;
16436;SDS011;8328;52.206;21.006;2023-09-07T10:14:37;6.53;;;5.90;;
16436;SDS011;8328;52.206;21.006;2023-09-07T10:17:04;6.10;;;4.53;;
16436;SDS011;8328;52.206;21.006;2023-09-07T10:19:30;7.27;;;4.70;;
16436;SDS011;8328;52.206;21.006;2023-09-07T10:22:01;5.73;;;4.50;;
16436;SDS011;8328;52.206;21.006;2023-09-07T10:24:32;5.13;;;3.93;;
16436;SDS011;8328;52.206;21.006;2023-09-07T10:27:04;10.73;;;5.37;;
16436;SDS011;8328;52.206;21.006;2023-09-07T10:32:37;7.03;;;4.37;;
16436;SDS011;8328;52.206;21.006;2023-09-07T10:35:26;8.63;;;3.90;;
16436;SDS011;8328;52.206;21.006;2023-09-07T10:37:54;10.07;;;4.30;;
16436;SDS011;8328;52.206;21.006;2023-09-07T10:40:20;7.13;;;3.90;;
16436;SDS011;8328;52.206;21.006;2023-09-07T10:42:47;7.57;;;4.30;;
16436;SDS011;8328;52.206;21.006;2023-09-07T10:45:14;5.30;;;3.90;;
16436;SDS011;8328;52.206;21.006;2023-09-07T10:47:44;6.47;;;4.33;;
16436;SDS011;8328;52.206;21.006;2023-09-07T10:50:13;8.70;;;4.23;;
16436;SDS011;8328;52.206;21.006;2023-09-07T10:52:40;6.27;;;4.13;;
16436;SDS011;8328;52.206;21.006;2023-09-07T10:55:07;5.13;;;4.20;;
16436;SDS011;8328;52.206;21.006;2023-09-07T10:57:45;5.93;;;4.20;;
16436;SDS011;8328;52.206;21.006;2023-09-07T11:00:12;5.03;;;4.13;;
16436;SDS011;8328;52.206;21.006;2023-09-07T11:02:39;4.83;;;3.70;;
16436;SDS011;8328;52.206;21.006;2023-09-07T11:05:06;3.60;;;3.30;;
16436;SDS011;8328;52.206;21.006;2023-09-07T11:07:33;14.67;;;4.67;;
16436;SDS011;8328;52.206;21.006;2023-09-07T11:09:59;4.30;;;3.43;;
16436;SDS011;8328;52.206;21.006;2023-09-07T11:12:25;4.50;;;3.40;;
16436;SDS011;8328;52.206;21.006;2023-09-07T11:14:51;8.30;;;3.97;;
16436;SDS011;8328;52.206;21.006;2023-09-07T11:17:17;6.30;;;3.10;;
16436;SDS011;8328;52.206;21.006;2023-09-07T11:19:43;3.77;;;3.30;;
16436;SDS011;8328;52.206;21.006;2023-09-07T11:22:12;11.67;;;3.70;;
16436;SDS011;8328;52.206;21.006;2023-09-07T11:24:39;3.83;;;3.30;;
16436;SDS011;8328;52.206;21.006;2023-09-07T11:27:05;5.87;;;3.40;;
16436;SDS011;8328;52.206;21.006;2023-09-07T11:29:34;4.50;;;3.30;;
16436;SDS011;8328;52.206;21.006;2023-09-07T11:32:09;4.87;;;3.30;;
16436;SDS011;8328;52.206;21.006;2023-09-07T11:34:46;4.67;;;3.17;;
16436;SDS011;8328;52.206;21.006;2023-09-07T11:37:15;4.43;;;3.23;;
16436;SDS011;8328;52.206;21.006;2023-09-07T11:39:42;4.93;;;3.47;;
16436;SDS011;8328;52.206;21.006;2023-09-07T11:42:08;4.80;;;3.57;;
16436;SDS011;8328;52.206;21.006;2023-09-07T11:44:34;5.53;;;3.60;;
16436;SDS011;8328;52.206;21.006;2023-09-07T11:47:00;3.93;;;3.50;;
16436;SDS011;8328;52.206;21.006;2023-09-07T11:49:28;4.00;;;3.30;;
16436;SDS011;8328;52.206;21.006;2023-09-07T11:51:56;6.63;;;3.70;;
16436;SDS011;8328;52.206;21.006;2023-09-07T11:54:22;4.03;;;3.23;;
16436;SDS011;8328;52.206;21.006;2023-09-07T11:56:48;4.40;;;3.37;;
16436;SDS011;8328;52.206;21.006;2023-09-07T11:59:15;6.53;;;3.20;;
16436;SDS011;8328;52.206;21.006;2023-09-07T12:01:42;6.43;;;3.50;;
16436;SDS011;8328;52.206;21.006;2023-09-07T12:04:09;4.73;;;3.07;;
16436;SDS011;8328;52.206;21.006;2023-09-07T12:06:35;6.10;;;3.43;;
16436;SDS011;8328;52.206;21.006;2023-09-07T12:09:02;5.10;;;2.73;;
16436;SDS011;8328;52.206;21.006;2023-09-07T12:11:29;4.80;;;3.10;;
16436;SDS011;8328;52.206;21.006;2023-09-07T12:13:55;8.03;;;3.40;;
16436;SDS011;8328;52.206;21.006;2023-09-07T12:16:22;3.77;;;3.07;;
16436;SDS011;8328;52.206;21.006;2023-09-07T12:18:48;5.07;;;2.90;;
16436;SDS011;8328;52.206;21.006;2023-09-07T12:21:14;6.28;;;3.17;;
16436;SDS011;8328;52.206;21.006;2023-09-07T12:23:40;4.97;;;3.45;;
16436;SDS011;8328;52.206;21.006;2023-09-07T12:26:06;3.55;;;3.22;;
16436;SDS011;8328;52.206;21.006;2023-09-07T12:28:33;5.40;;;4.00;;
16436;SDS011;8328;52.206;21.006;2023-09-07T12:30:59;4.53;;;3.57;;
16436;SDS011;8328;52.206;21.006;2023-09-07T12:33:26;4.07;;;3.20;;
16436;SDS011;8328;52.206;21.006;2023-09-07T12:35:54;3.25;;;2.78;;
16436;SDS011;8328;52.206;21.006;2023-09-07T12:38:21;7.82;;;3.83;;
16436;SDS011;8328;52.206;21.006;2023-09-07T12:40:52;4.50;;;3.50;;
16436;SDS011;8328;52.206;21.006;2023-09-07T12:43:18;3.70;;;2.80;;
16436;SDS011;8328;52.206;21.006;2023-09-07T12:45:45;4.95;;;2.83;;
16436;SDS011;8328;52.206;21.006;2023-09-07T12:48:11;3.72;;;2.92;;
16436;SDS011;8328;52.206;21.006;2023-09-07T12:50:37;4.68;;;3.05;;
16436;SDS011;8328;52.206;21.006;2023-09-07T12:53:04;4.45;;;4.05;;
16436;SDS011;8328;52.206;21.006;2023-09-07T12:55:30;2.88;;;2.40;;
16436;SDS011;8328;52.206;21.006;2023-09-07T12:57:56;3.25;;;2.95;;
16436;SDS011;8328;52.206;21.006;2023-09-07T13:00:22;3.13;;;2.40;;
16436;SDS011;8328;52.206;21.006;2023-09-07T13:02:48;3.92;;;2.78;;
16436;SDS011;8328;52.206;21.006;2023-09-07T13:05:14;4.55;;;3.45;;
16436;SDS011;8328;52.206;21.006;2023-09-07T13:07:40;5.88;;;2.80;;
16436;SDS011;8328;52.206;21.006;2023-09-07T13:10:09;4.40;;;3.55;;
16436;SDS011;8328;52.206;21.006;2023-09-07T13:12:36;3.70;;;2.80;;
16436;SDS011;8328;52.206;21.006;2023-09-07T13:15:02;6.00;;;2.38;;
16436;SDS011;8328;52.206;21.006;2023-09-07T13:17:28;2.63;;;2.20;;
16436;SDS011;8328;52.206;21.006;2023-09-07T13:19:54;3.13;;;2.43;;
16436;SDS011;8328;52.206;21.006;2023-09-07T13:22:21;5.67;;;2.80;;
16436;SDS011;8328;52.206;21.006;2023-09-07T13:24:47;3.13;;;2.50;;
16436;SDS011;8328;52.206;21.006;2023-09-07T13:27:13;6.10;;;3.70;;
16436;SDS011;8328;52.206;21.006;2023-09-07T13:29:39;3.77;;;2.60;;
16436;SDS011;8328;52.206;21.006;2023-09-07T13:32:05;3.73;;;3.03;;
16436;SDS011;8328;52.206;21.006;2023-09-07T13:34:31;4.83;;;2.90;;
16436;SDS011;8328;52.206;21.006;2023-09-07T13:36:57;5.20;;;4.03;;
16436;SDS011;8328;52.206;21.006;2023-09-07T13:39:24;3.93;;;3.50;;
16436;SDS011;8328;52.206;21.006;2023-09-07T13:41:50;8.30;;;6.07;;
16436;SDS011;8328;52.206;21.006;2023-09-07T13:44:16;6.73;;;4.90;;
16436;SDS011;8328;52.206;21.006;2023-09-07T13:46:42;7.37;;;5.30;;
16436;SDS011;8328;52.206;21.006;2023-09-07T13:49:09;11.47;;;4.90;;
16436;SDS011;8328;52.206;21.006;2023-09-07T13:51:35;7.57;;;4.97;;
16436;SDS011;8328;52.206;21.006;2023-09-07T13:54:05;5.53;;;4.30;;
16436;SDS011;8328;52.206;21.006;2023-09-07T13:56:32;6.50;;;3.40;;
16436;SDS011;8328;52.206;21.006;2023-09-07T13:58:58;4.57;;;3.63;;
16436;SDS011;8328;52.206;21.006;2023-09-07T14:01:25;3.17;;;2.50;;
16436;SDS011;8328;52.206;21.006;2023-09-07T14:03:51;4.17;;;3.00;;
16436;SDS011;8328;52.206;21.006;2023-09-07T14:06:17;5.57;;;3.97;;
16436;SDS011;8328;52.206;21.006;2023-09-07T14:08:46;4.97;;;4.17;;
16436;SDS011;8328;52.206;21.006;2023-09-07T14:11:13;4.20;;;2.70;;
16436;SDS011;8328;52.206;21.006;2023-09-07T14:13:39;5.40;;;3.30;;
16436;SDS011;8328;52.206;21.006;2023-09-07T14:16:05;3.40;;;2.70;;
16436;SDS011;8328;52.206;21.006;2023-09-07T14:18:32;5.37;;;2.87;;
16436;SDS011;8328;52.206;21.006;2023-09-07T14:20:58;5.73;;;4.27;;
16436;SDS011;8328;52.206;21.006;2023-09-07T14:23:26;4.53;;;3.50;;
16436;SDS011;8328;52.206;21.006;2023-09-07T14:25:53;4.63;;;3.30;;
16436;SDS011;8328;52.206;21.006;2023-09-07T14:28:19;4.03;;;3.10;;
16436;SDS011;8328;52.206;21.006;2023-09-07T14:30:45;5.30;;;3.03;;
16436;SDS011;8328;52.206;21.006;2023-09-07T14:33:11;3.93;;;3.20;;
16436;SDS011;8328;52.206;21.006;2023-09-07T14:35:38;4.07;;;3.20;;